If you wish to contribute or participate in the discussions about articles you are invited to join SKYbrary as a registered user

 Actions

London Airport

From SKYbrary Wiki

CYXU
Airport
ICAO: CYXU – IATA: YXU
Summary
Name London Airport
Region North America
Territory "CY" is not in the list (AG, AN, AY, BG, BI, BK, C, CT, DA, DB, ...) of allowed values for the "ICAO Territory" property.
Location London, Ontario
Serving London
Elevation 277.978 m
912 ft
912 ft277.978 m
Type large airport
Coordinates 43° 1' 59.00" N, 81° 9' 4.00" W
Runways
Designator Length Width Surface ROPS
9/27 1920 m6,299.213 ft
61 m200.131 ft
ASP yes/yes
15/33 2682 m8,799.213 ft
61 m200.131 ft
ASP yes/yes


METAR
Observation CYXU 211241Z 34009KT 15SM SCT008 OVC120 21/18 A2993 RMK SC3AC5 SLP131 DENSITY ALT 1800FT
Station London, Ont.
Date/Time 21 July 2019 12:41:00
Wind direction 340°
Wind speed 09 kts
Lowest cloud amount scattered clouds
Temperature 21°C
Dew point 18°C
Humidity 83%
QNH hPa
Weather condition n/a

Maps

Terrain

Loading map...

Airport Layout

Loading map...


Accidents & Serious Incidents at or in vicinity of CYXU

None on SKYbrary